createdAt,value
2017-07-09T00:00:05.846Z,22.20
2017-07-09T00:02:33.412Z,24.00
2017-07-09T00:05:00.982Z,20.33
2017-07-09T00:07:28.591Z,24.13
2017-07-09T00:09:56.156Z,24.20
2017-07-09T00:12:31.665Z,23.80
2017-07-09T00:14:59.236Z,25.10
2017-07-09T00:17:26.816Z,26.47
2017-07-09T00:19:54.404Z,24.70
2017-07-09T00:22:21.967Z,24.97
2017-07-09T00:24:49.533Z,25.73
2017-07-09T00:27:17.133Z,24.27
2017-07-09T00:29:44.696Z,24.40
2017-07-09T00:32:12.268Z,24.60
2017-07-09T00:34:39.859Z,25.00
2017-07-09T00:37:07.430Z,24.03
2017-07-09T00:39:35.000Z,23.03
2017-07-09T00:42:02.588Z,26.67
2017-07-09T00:44:30.159Z,24.70
2017-07-09T00:46:57.730Z,23.13
2017-07-09T00:49:25.315Z,23.27
2017-07-09T00:51:52.880Z,23.33
2017-07-09T00:54:20.449Z,24.30
2017-07-09T00:56:48.945Z,26.60
2017-07-09T00:59:16.514Z,25.07
2017-07-09T01:01:44.080Z,25.80
2017-07-09T01:04:11.673Z,25.27
2017-07-09T01:06:39.241Z,25.30
2017-07-09T01:09:06.812Z,27.10
2017-07-09T01:11:34.402Z,28.00
2017-07-09T01:14:01.976Z,29.30
2017-07-09T01:16:29.541Z,26.90
2017-07-09T01:18:57.132Z,29.17
2017-07-09T01:21:24.704Z,31.20
2017-07-09T01:23:52.279Z,32.87
2017-07-09T01:26:19.864Z,34.13
2017-07-09T01:28:47.437Z,35.27
2017-07-09T01:31:15.004Z,31.83
2017-07-09T01:33:42.601Z,34.73
2017-07-09T01:36:10.179Z,30.50
2017-07-09T01:38:37.757Z,31.77
2017-07-09T01:41:05.352Z,31.10
2017-07-09T01:43:32.916Z,31.53
2017-07-09T01:46:00.487Z,32.23
2017-07-09T01:48:28.077Z,32.67
2017-07-09T01:50:55.651Z,34.07
2017-07-09T01:53:23.212Z,34.60
2017-07-09T01:55:50.753Z,32.13
2017-07-09T01:58:18.280Z,29.90
2017-07-09T02:00:45.811Z,31.37
2017-07-09T02:03:13.364Z,30.63
2017-07-09T02:05:40.904Z,31.47
2017-07-09T02:08:08.441Z,29.97
2017-07-09T02:10:36.011Z,29.87
2017-07-09T02:13:03.538Z,29.13
2017-07-09T02:15:31.072Z,31.57
2017-07-09T02:17:58.622Z,32.50
2017-07-09T02:20:26.156Z,32.73
2017-07-09T02:22:53.690Z,31.40
2017-07-09T02:25:21.239Z,34.43
2017-07-09T02:27:48.771Z,33.40
2017-07-09T02:30:16.302Z,33.43
2017-07-09T02:32:43.856Z,36.20
2017-07-09T02:35:11.386Z,35.40
2017-07-09T02:37:38.914Z,35.80
2017-07-09T02:40:06.479Z,35.43
2017-07-09T02:42:34.010Z,39.80
2017-07-09T02:45:01.538Z,36.37
2017-07-09T02:47:29.087Z,34.63
2017-07-09T02:49:56.634Z,38.23
2017-07-09T02:52:24.158Z,37.73
2017-07-09T02:54:51.703Z,39.77
2017-07-09T02:57:19.240Z,39.07
2017-07-09T02:59:46.767Z,39.13
2017-07-09T03:02:14.320Z,39.23
2017-07-09T03:04:41.842Z,40.47
2017-07-09T03:07:09.374Z,38.23
2017-07-09T03:09:36.927Z,39.77
2017-07-09T03:12:04.453Z,41.30
2017-07-09T03:14:31.979Z,40.73
2017-07-09T03:16:59.531Z,40.43
2017-07-09T03:19:27.058Z,40.50
2017-07-09T03:21:55.367Z,41.53
2017-07-09T03:24:23.084Z,39.70
2017-07-09T03:26:50.807Z,41.53
2017-07-09T03:29:18.339Z,42.77
2017-07-09T03:31:45.887Z,39.90
2017-07-09T03:34:13.418Z,40.17
2017-07-09T03:36:40.947Z,43.87
2017-07-09T03:39:08.495Z,42.30
2017-07-09T03:41:36.040Z,45.80
2017-07-09T03:44:03.565Z,40.63
2017-07-09T03:46:31.110Z,44.73
2017-07-09T03:48:58.638Z,39.53
2017-07-09T03:51:26.167Z,40.50
2017-07-09T03:53:53.714Z,42.13
2017-07-09T03:56:21.242Z,45.50
2017-07-09T03:58:48.766Z,51.43
2017-07-09T04:01:16.550Z,41.00
2017-07-09T04:03:44.084Z,42.87
2017-07-09T04:06:11.622Z,41.20
2017-07-09T04:08:39.170Z,39.30
2017-07-09T04:11:06.699Z,40.87
2017-07-09T04:13:34.225Z,39.93
2017-07-09T04:16:01.769Z,45.70
2017-07-09T04:18:29.293Z,38.67
2017-07-09T04:20:56.818Z,37.10
2017-07-09T04:23:24.369Z,39.40
2017-07-09T04:25:51.897Z,36.37
2017-07-09T04:28:19.426Z,36.33
2017-07-09T04:30:46.974Z,34.60
2017-07-09T04:33:14.497Z,32.43
2017-07-09T04:35:42.027Z,32.23
2017-07-09T04:38:09.577Z,30.40
2017-07-09T04:40:37.104Z,30.97
2017-07-09T04:43:04.624Z,28.83
2017-07-09T04:45:32.170Z,25.43
2017-07-09T04:47:59.697Z,25.57
2017-07-09T04:50:27.222Z,25.20
2017-07-09T04:52:54.779Z,26.33
2017-07-09T04:55:22.315Z,24.63
2017-07-09T04:57:49.846Z,24.37
2017-07-09T05:00:17.391Z,24.27
2017-07-09T05:02:44.925Z,25.30
2017-07-09T05:05:12.459Z,26.23
2017-07-09T05:07:40.010Z,25.13
2017-07-09T05:10:07.545Z,23.30
2017-07-09T05:12:35.075Z,24.60
2017-07-09T05:15:02.622Z,22.40
2017-07-09T05:17:30.153Z,21.53
2017-07-09T05:19:57.686Z,23.93
2017-07-09T05:22:25.248Z,25.00
2017-07-09T05:24:52.778Z,21.87
2017-07-09T05:27:20.306Z,22.90
2017-07-09T05:29:47.862Z,22.07
2017-07-09T05:32:15.391Z,21.67
2017-07-09T05:34:42.921Z,21.77
2017-07-09T05:37:10.481Z,19.73
2017-07-09T05:39:38.007Z,19.93
2017-07-09T05:42:05.531Z,19.90
2017-07-09T05:44:33.085Z,19.60
2017-07-09T05:47:00.616Z,19.13
2017-07-09T05:49:28.142Z,20.20
2017-07-09T05:51:55.690Z,18.07
2017-07-09T05:54:23.225Z,18.33
2017-07-09T05:56:50.754Z,15.70
2017-07-09T05:59:18.314Z,15.90
2017-07-09T06:01:45.838Z,16.13
2017-07-09T06:04:13.369Z,17.50
2017-07-09T06:06:41.057Z,15.47
2017-07-09T06:09:08.616Z,15.27
2017-07-09T06:11:36.190Z,16.20
2017-07-09T06:14:03.737Z,18.70
2017-07-09T06:16:31.396Z,15.47
2017-07-09T06:18:58.982Z,15.90
2017-07-09T06:21:26.645Z,15.70
2017-07-09T06:23:54.178Z,15.33
2017-07-09T06:26:21.743Z,14.47
2017-07-09T06:28:49.294Z,17.90
2017-07-09T06:31:16.825Z,13.47
2017-07-09T06:33:44.359Z,13.80
2017-07-09T06:36:11.911Z,12.73
2017-07-09T06:38:39.443Z,12.37
2017-07-09T06:41:06.999Z,14.33
2017-07-09T06:43:34.549Z,12.93
2017-07-09T06:46:02.082Z,12.83
2017-07-09T06:48:29.629Z,11.00
2017-07-09T06:50:57.976Z,10.93
2017-07-09T06:53:25.510Z,10.43
2017-07-09T06:55:53.054Z,13.00
2017-07-09T06:58:20.831Z,14.40
2017-07-09T07:00:48.371Z,13.33
2017-07-09T07:03:15.903Z,22.03
2017-07-09T07:05:44.224Z,12.70
2017-07-09T07:08:11.788Z,9.47
2017-07-09T07:10:39.314Z,8.63
2017-07-09T07:13:06.911Z,8.80
2017-07-09T07:15:34.458Z,10.10
2017-07-09T07:18:01.981Z,10.77
2017-07-09T07:20:29.521Z,8.13
2017-07-09T07:22:57.050Z,8.73
2017-07-09T07:25:24.694Z,7.47
2017-07-09T07:27:52.259Z,8.33
2017-07-09T07:30:19.781Z,7.73
2017-07-09T07:32:48.091Z,12.67
2017-07-09T07:35:15.651Z,7.93
2017-07-09T07:37:43.179Z,7.60
2017-07-09T07:40:10.873Z,8.60
2017-07-09T07:42:38.453Z,6.57
2017-07-09T07:45:05.979Z,7.13
2017-07-09T07:47:33.513Z,7.03
2017-07-09T07:50:01.825Z,7.20
2017-07-09T07:52:29.390Z,7.30
2017-07-09T07:54:56.906Z,8.07
2017-07-09T07:57:25.206Z,8.40
2017-07-09T07:59:52.740Z,7.17
2017-07-09T08:02:20.346Z,7.43
2017-07-09T08:04:47.896Z,4.97
2017-07-09T08:07:15.431Z,7.40
2017-07-09T08:09:43.026Z,5.50
2017-07-09T08:12:10.578Z,6.63
2017-07-09T08:14:38.241Z,7.83
2017-07-09T08:17:05.902Z,7.70
2017-07-09T08:19:33.473Z,7.60
2017-07-09T08:22:01.003Z,5.40
2017-07-09T08:24:28.527Z,5.30
2017-07-09T08:26:56.067Z,8.00
2017-07-09T08:29:23.584Z,5.20
2017-07-09T08:31:51.101Z,8.37
2017-07-09T08:34:18.653Z,5.47
2017-07-09T08:36:46.277Z,6.30
2017-07-09T08:39:13.797Z,5.23
2017-07-09T08:41:41.356Z,4.83
2017-07-09T08:44:08.960Z,6.40
2017-07-09T08:46:36.513Z,4.43
2017-07-09T08:49:04.076Z,6.97
2017-07-09T08:51:31.603Z,6.33
2017-07-09T08:53:59.134Z,5.50
2017-07-09T08:56:26.705Z,4.47
2017-07-09T08:58:55.007Z,4.43
2017-07-09T09:01:22.532Z,6.03
2017-07-09T09:03:50.088Z,4.77
2017-07-09T09:06:17.726Z,4.00
2017-07-09T09:08:45.373Z,4.00
2017-07-09T09:11:12.934Z,6.77
2017-07-09T09:13:40.462Z,4.40
2017-07-09T09:16:07.998Z,3.53
2017-07-09T09:18:35.546Z,4.53
2017-07-09T09:21:03.181Z,8.10
2017-07-09T09:23:30.742Z,4.23
2017-07-09T09:25:58.285Z,3.97
2017-07-09T09:28:25.814Z,3.73
2017-07-09T09:30:53.349Z,3.87
2017-07-09T09:33:21.074Z,3.60
2017-07-09T09:35:48.601Z,4.00
2017-07-09T09:38:17.009Z,3.23
2017-07-09T09:40:44.551Z,7.67
2017-07-09T09:43:12.137Z,4.50
2017-07-09T09:45:39.690Z,3.60
2017-07-09T09:48:07.351Z,3.90
2017-07-09T09:50:34.875Z,4.83
2017-07-09T09:53:03.163Z,4.27
2017-07-09T09:55:30.758Z,4.33
2017-07-09T09:57:58.409Z,3.60
2017-07-09T10:00:25.974Z,3.80
2017-07-09T10:02:53.518Z,3.90
2017-07-09T10:05:21.051Z,4.93
2017-07-09T10:07:49.363Z,3.93
2017-07-09T10:10:17.024Z,6.17
2017-07-09T10:12:44.592Z,3.50
2017-07-09T10:15:12.146Z,5.03
2017-07-09T10:17:39.693Z,3.90
2017-07-09T10:20:07.222Z,3.40
2017-07-09T10:22:34.742Z,4.47
2017-07-09T10:25:02.290Z,4.67
2017-07-09T10:27:29.823Z,5.37
2017-07-09T10:29:57.346Z,4.57
2017-07-09T10:32:24.898Z,6.30
2017-07-09T10:34:52.441Z,4.53
2017-07-09T10:37:19.968Z,4.40
2017-07-09T10:39:47.524Z,6.30
2017-07-09T10:42:15.063Z,4.40
2017-07-09T10:44:42.606Z,4.27
2017-07-09T10:47:10.930Z,7.57
2017-07-09T10:49:38.454Z,5.77
2017-07-09T10:52:05.979Z,5.97
2017-07-09T10:54:33.517Z,4.90
2017-07-09T10:57:01.061Z,4.30
2017-07-09T10:59:28.594Z,4.70
2017-07-09T11:01:56.137Z,4.10
2017-07-09T11:04:24.433Z,4.77
2017-07-09T11:06:52.031Z,4.20
2017-07-09T11:09:19.675Z,4.57
2017-07-09T11:11:47.198Z,4.20
2017-07-09T11:14:15.513Z,4.60
2017-07-09T11:16:43.083Z,4.70
2017-07-09T11:19:10.610Z,6.80
2017-07-09T11:21:38.190Z,4.67
2017-07-09T11:24:05.750Z,4.30
2017-07-09T11:26:33.279Z,7.17
2017-07-09T11:29:01.591Z,4.23
2017-07-09T11:31:29.155Z,5.13
2017-07-09T11:33:57.283Z,5.33
2017-07-09T11:36:25.571Z,4.80
2017-07-09T11:38:53.434Z,3.50
2017-07-09T11:41:20.976Z,4.80
2017-07-09T11:43:49.299Z,5.33
2017-07-09T11:46:16.859Z,4.40
2017-07-09T11:48:44.392Z,4.43
2017-07-09T11:51:11.929Z,3.87
2017-07-09T11:53:40.255Z,3.83
2017-07-09T11:56:07.782Z,3.80
2017-07-09T11:58:35.310Z,5.40
2017-07-09T12:01:02.849Z,4.20
2017-07-09T12:03:30.374Z,4.00
2017-07-09T12:05:57.952Z,4.00
2017-07-09T12:08:25.497Z,3.40
2017-07-09T12:10:53.077Z,3.70
2017-07-09T12:13:20.632Z,6.30
2017-07-09T12:15:48.183Z,4.17
2017-07-09T12:18:15.752Z,3.73
2017-07-09T12:20:43.308Z,4.20
2017-07-09T12:23:10.860Z,3.57
2017-07-09T12:25:38.385Z,3.83
2017-07-09T12:28:06.669Z,3.63
2017-07-09T12:30:34.215Z,3.60
2017-07-09T12:33:02.504Z,3.27
2017-07-09T12:35:30.025Z,8.40
2017-07-09T12:37:57.571Z,4.90
2017-07-09T12:40:25.155Z,3.00
2017-07-09T12:42:53.491Z,3.08
2017-07-09T12:45:21.045Z,3.10
2017-07-09T12:47:48.605Z,4.68
2017-07-09T12:50:16.135Z,3.00
2017-07-09T12:52:43.679Z,3.20
2017-07-09T12:55:12.791Z,3.35
2017-07-09T12:57:40.383Z,3.28
2017-07-09T13:00:07.991Z,2.90
2017-07-09T13:02:36.319Z,3.22
2017-07-09T13:05:03.849Z,3.75
2017-07-09T13:07:31.402Z,3.37
2017-07-09T13:09:59.691Z,3.67
2017-07-09T13:12:27.214Z,4.07
2017-07-09T13:14:54.755Z,2.90
2017-07-09T13:17:22.279Z,3.28
2017-07-09T13:19:49.805Z,3.50
2017-07-09T13:22:17.349Z,3.80
2017-07-09T13:24:44.874Z,4.18
2017-07-09T13:27:12.394Z,2.95
2017-07-09T13:29:39.938Z,3.08
2017-07-09T13:32:08.256Z,3.58
2017-07-09T13:34:35.784Z,4.40
2017-07-09T13:37:03.325Z,3.58
2017-07-09T13:39:30.850Z,2.95
2017-07-09T13:41:58.402Z,3.17
2017-07-09T13:44:25.945Z,2.72
2017-07-09T13:46:53.515Z,3.10
2017-07-09T13:49:21.076Z,2.83
2017-07-09T13:51:48.635Z,2.67
2017-07-09T13:54:16.289Z,3.25
2017-07-09T13:56:43.860Z,2.83
2017-07-09T13:59:11.517Z,3.45
2017-07-09T14:01:39.046Z,2.87
2017-07-09T14:04:06.575Z,3.10
2017-07-09T14:06:34.909Z,3.25
2017-07-09T14:09:02.464Z,3.00
2017-07-09T14:11:30.027Z,3.20
2017-07-09T14:13:58.931Z,3.25
2017-07-09T14:16:28.294Z,3.40
2017-07-09T14:18:57.322Z,2.92
2017-07-09T14:21:26.326Z,2.70
2017-07-09T14:23:55.294Z,3.85
2017-07-09T14:26:24.293Z,2.72
2017-07-09T14:28:53.277Z,4.82
2017-07-09T14:31:22.194Z,9.77
2017-07-09T14:33:51.082Z,3.10
2017-07-09T14:36:19.977Z,2.75
2017-07-09T14:38:48.858Z,3.33
2017-07-09T14:41:17.743Z,3.15
2017-07-09T14:43:46.830Z,2.83
2017-07-09T14:46:15.825Z,2.50
2017-07-09T14:48:44.816Z,2.45
2017-07-09T14:51:13.809Z,2.00
2017-07-09T14:53:42.713Z,2.40
2017-07-09T14:56:11.693Z,2.42
2017-07-09T14:58:40.599Z,2.70
2017-07-09T15:01:09.465Z,3.00
2017-07-09T15:03:38.345Z,2.12
2017-07-09T15:06:07.234Z,2.15
2017-07-09T15:08:36.100Z,2.47
2017-07-09T15:11:04.974Z,3.50
2017-07-09T15:13:33.866Z,2.30
2017-07-09T15:16:03.241Z,2.85
2017-07-09T15:18:32.110Z,2.33
2017-07-09T15:21:01.030Z,5.20
2017-07-09T15:23:29.920Z,3.22
2017-07-09T15:25:58.793Z,2.95
2017-07-09T15:28:27.785Z,4.43
2017-07-09T15:30:56.781Z,2.40
2017-07-09T15:33:25.669Z,2.50
2017-07-09T15:35:54.554Z,2.25
2017-07-09T15:38:23.429Z,2.40
2017-07-09T15:40:52.299Z,3.35
2017-07-09T15:43:21.334Z,2.37
2017-07-09T15:45:50.329Z,2.90
2017-07-09T15:48:19.320Z,2.60
2017-07-09T15:50:48.315Z,2.73
2017-07-09T15:53:17.309Z,3.80
2017-07-09T15:55:46.214Z,6.60
2017-07-09T15:58:15.214Z,3.87
2017-07-09T16:00:44.097Z,2.60
2017-07-09T16:03:13.020Z,2.37
2017-07-09T16:05:42.070Z,2.37
2017-07-09T16:08:10.946Z,2.90
2017-07-09T16:10:39.952Z,3.12
2017-07-09T16:13:08.834Z,2.65
2017-07-09T16:15:37.761Z,4.45
2017-07-09T16:18:06.634Z,2.42
2017-07-09T16:20:35.521Z,3.85
2017-07-09T16:23:04.389Z,3.10
2017-07-09T16:25:33.400Z,2.90
2017-07-09T16:28:02.394Z,5.83
2017-07-09T16:30:31.264Z,4.10
2017-07-09T16:33:00.128Z,3.87
2017-07-09T16:35:29.084Z,4.83
2017-07-09T16:37:57.958Z,4.87
2017-07-09T16:40:26.826Z,3.07
2017-07-09T16:42:55.759Z,3.50
2017-07-09T16:45:24.651Z,5.83
2017-07-09T16:47:53.550Z,3.20
2017-07-09T16:50:22.452Z,3.20
2017-07-09T16:52:51.505Z,3.50
2017-07-09T16:55:20.369Z,3.27
2017-07-09T16:57:49.391Z,3.30
2017-07-09T17:00:18.258Z,6.43
2017-07-09T17:02:47.190Z,3.50
2017-07-09T17:05:16.077Z,5.57
2017-07-09T17:07:44.944Z,3.40
2017-07-09T17:10:13.817Z,3.43
2017-07-09T17:12:42.745Z,7.33
2017-07-09T17:15:11.645Z,3.33
2017-07-09T17:17:40.619Z,3.13
2017-07-09T17:20:09.539Z,5.00
2017-07-09T17:22:38.504Z,4.47
2017-07-09T17:25:07.496Z,4.87
2017-07-09T17:27:36.491Z,4.47
2017-07-09T17:30:05.489Z,4.10
2017-07-09T17:32:34.479Z,4.10
2017-07-09T17:35:03.385Z,3.33
2017-07-09T17:37:32.258Z,3.47
2017-07-09T17:40:01.167Z,5.17
2017-07-09T17:42:30.144Z,4.97
2017-07-09T17:45:04.388Z,4.80
2017-07-09T17:47:33.475Z,4.00
2017-07-09T17:50:02.381Z,3.67
2017-07-09T17:52:31.278Z,7.60
2017-07-09T17:55:00.169Z,4.10
2017-07-09T17:57:29.064Z,3.37
2017-07-09T17:59:57.938Z,5.23
2017-07-09T18:02:26.830Z,4.83
2017-07-09T18:04:55.818Z,3.17
2017-07-09T18:07:24.787Z,5.03
2017-07-09T18:09:53.703Z,4.67
2017-07-09T18:12:22.669Z,4.77
2017-07-09T18:14:51.550Z,5.27
2017-07-09T18:17:20.445Z,4.57
2017-07-09T18:19:49.325Z,5.43
2017-07-09T18:22:18.192Z,3.83
2017-07-09T18:24:47.101Z,4.27
2017-07-09T18:27:16.122Z,4.53
2017-07-09T18:29:45.665Z,4.70
2017-07-09T18:32:14.570Z,4.97
2017-07-09T18:34:43.450Z,6.07
2017-07-09T18:37:12.330Z,4.17
2017-07-09T18:39:41.230Z,6.63
2017-07-09T18:42:10.135Z,25.80
2017-07-09T18:44:39.014Z,6.83
2017-07-09T18:47:07.978Z,5.13
2017-07-09T18:49:36.852Z,5.03
2017-07-09T18:52:05.753Z,5.20
2017-07-09T18:54:34.670Z,4.97
2017-07-09T18:57:03.589Z,4.77
2017-07-09T18:59:32.602Z,4.77
2017-07-09T19:02:01.529Z,8.47
2017-07-09T19:04:30.417Z,10.10
2017-07-09T19:06:59.330Z,6.30
2017-07-09T19:09:28.227Z,4.40
2017-07-09T19:11:57.113Z,6.83
2017-07-09T19:14:26.024Z,7.10
2017-07-09T19:16:54.919Z,6.27
2017-07-09T19:19:23.807Z,4.90
2017-07-09T19:21:53.379Z,7.60
2017-07-09T19:24:22.310Z,6.80
2017-07-09T19:26:51.181Z,4.90
2017-07-09T19:29:20.091Z,14.47
2017-07-09T19:31:49.061Z,16.60
2017-07-09T19:34:17.961Z,6.50
2017-07-09T19:36:46.869Z,6.87
2017-07-09T19:39:15.903Z,5.47
2017-07-09T19:41:44.830Z,6.33
2017-07-09T19:44:13.706Z,5.90
2017-07-09T19:46:42.626Z,5.40
2017-07-09T19:49:11.630Z,10.10
2017-07-09T19:51:40.515Z,7.87
2017-07-09T19:54:09.448Z,7.63
2017-07-09T19:56:38.334Z,9.43
2017-07-09T19:59:07.232Z,9.50
2017-07-09T20:01:36.157Z,6.73
2017-07-09T20:04:05.066Z,7.30
2017-07-09T20:06:33.977Z,8.03
2017-07-09T20:09:02.990Z,7.83
2017-07-09T20:11:31.871Z,9.10
2017-07-09T20:14:00.769Z,6.03
2017-07-09T20:16:29.690Z,10.57
2017-07-09T20:18:58.580Z,7.80
2017-07-09T20:21:27.457Z,9.97
2017-07-09T20:23:56.361Z,9.70
2017-07-09T20:26:25.267Z,6.13
2017-07-09T20:28:54.150Z,6.53
2017-07-09T20:31:23.076Z,7.90
2017-07-09T20:33:51.970Z,8.27
2017-07-09T20:36:20.855Z,8.43
2017-07-09T20:38:49.757Z,5.20
2017-07-09T20:41:18.668Z,7.03
2017-07-09T20:43:47.558Z,8.87
2017-07-09T20:46:16.474Z,7.30
2017-07-09T20:48:45.363Z,8.03
2017-07-09T20:51:14.336Z,7.90
2017-07-09T20:53:43.278Z,8.83
2017-07-09T20:56:12.309Z,6.90
2017-07-09T20:58:41.319Z,9.03
2017-07-09T21:01:10.365Z,8.57
2017-07-09T21:03:39.533Z,5.87
2017-07-09T21:06:08.439Z,6.20
2017-07-09T21:08:37.365Z,8.47
2017-07-09T21:11:06.322Z,10.47
2017-07-09T21:13:35.205Z,7.87
2017-07-09T21:16:04.200Z,5.93
2017-07-09T21:18:33.106Z,10.70
2017-07-09T21:21:02.006Z,6.43
2017-07-09T21:23:30.953Z,7.90
2017-07-09T21:25:59.842Z,6.17
2017-07-09T21:28:28.782Z,6.90
2017-07-09T21:30:57.682Z,9.93
2017-07-09T21:33:26.895Z,7.67
2017-07-09T21:35:55.934Z,13.53
2017-07-09T21:38:25.398Z,4.90
2017-07-09T21:40:54.294Z,4.30
2017-07-09T21:43:23.301Z,4.87
2017-07-09T21:45:52.230Z,5.80
2017-07-09T21:48:21.145Z,4.17
2017-07-09T21:50:50.029Z,6.13
2017-07-09T21:53:18.941Z,5.93
2017-07-09T21:55:47.847Z,4.90
2017-07-09T21:58:16.747Z,6.03
2017-07-09T22:00:45.672Z,7.20
2017-07-09T22:03:14.575Z,4.03
2017-07-09T22:05:43.461Z,4.03
2017-07-09T22:08:12.367Z,5.83
2017-07-09T22:10:41.331Z,7.37
2017-07-09T22:13:10.327Z,6.90
2017-07-09T22:15:39.335Z,3.27
2017-07-09T22:18:08.318Z,3.40
2017-07-09T22:20:37.205Z,3.47
2017-07-09T22:23:06.102Z,3.63
2017-07-09T22:25:34.983Z,6.87
2017-07-09T22:28:03.880Z,5.80
2017-07-09T22:30:32.781Z,5.37
2017-07-09T22:33:01.666Z,4.93
2017-07-09T22:35:30.535Z,7.97
2017-07-09T22:37:59.445Z,7.37
2017-07-09T22:40:28.335Z,6.77
2017-07-09T22:42:57.571Z,7.83
2017-07-09T22:45:27.040Z,8.40
2017-07-09T22:47:55.945Z,4.93
2017-07-09T22:50:24.832Z,5.70
2017-07-09T22:52:53.731Z,6.57
2017-07-09T22:55:22.598Z,8.30
2017-07-09T22:57:51.567Z,4.67
2017-07-09T23:00:20.481Z,7.37
2017-07-09T23:02:49.363Z,8.50
2017-07-09T23:05:18.239Z,7.30
2017-07-09T23:07:47.121Z,6.73
2017-07-09T23:10:16.038Z,6.87
2017-07-09T23:12:45.014Z,6.40
2017-07-09T23:15:14.009Z,5.20
2017-07-09T23:17:42.882Z,9.93
2017-07-09T23:20:11.807Z,6.13
2017-07-09T23:22:40.698Z,9.07
2017-07-09T23:25:09.578Z,6.97
2017-07-09T23:27:38.481Z,11.03
2017-07-09T23:30:07.386Z,9.83
2017-07-09T23:32:36.257Z,7.17
2017-07-09T23:35:05.136Z,6.67
2017-07-09T23:37:34.029Z,6.40
2017-07-09T23:40:02.960Z,15.70
2017-07-09T23:42:31.829Z,7.53
2017-07-09T23:45:00.763Z,9.07
2017-07-09T23:47:29.638Z,8.23
2017-07-09T23:49:58.517Z,7.17
2017-07-09T23:52:27.585Z,5.73
2017-07-09T23:54:56.468Z,11.40
2017-07-09T23:57:25.333Z,7.43
2017-07-09T23:59:54.217Z,8.63
